Fu Ning Wan — VRDN9 — position and weather

sailwx.info

Track history (hours):
 
Tides and Currents Weather Stations Pressure Air Temp Water Temp Dewpoint Dewpoint Depression Visibility Wind Speed Wind Dir Waves Ship Positions

Fu Ning Wan

Last reported at 2016-May-02 11:18 UTC. Time now 2016-May-04 21:13 UTC.
Position N 31°17' E 121°44'.

Length 102 m; draft 5.6 m.

Type: Tanker. MMSI: 477003600.

Date/timePositionNaut miles runAvg speedWind from/ knotsBaromVisibWave heightAir tempDewpointWater temp
2016-May-02 11:18N 31°17' E 121°44'911.6
2016-May-02 10:32N 31°23' E 121°36'10 9.7
2016-May-02 09:32N 31°29' E 121°27'1111.3
2016-May-02 08:34N 31°36' E 121°17'2813.0
2016-May-02 06:22N 31°55' E 120°52'911.2
2016-May-02 05:33N 32°00' E 120°43'1413.5
2016-May-02 04:32N 32°02' E 120°27'1514.2
2016-May-02 03:29N 31°56' E 120°11'  
2016-Apr-28 04:04N 32°03' E 120°26'5 6.8
2016-Apr-28 03:16N 32°03' E 120°33'9 8.4
2016-Apr-28 02:14N 32°00' E 120°42'26 8.6
2016-Apr-27 23:13N 31°44' E 121°06'711.3
2016-Apr-27 22:33N 31°40' E 121°13'8 8.0
2016-Apr-27 21:32N 31°34' E 121°20'0 0.1
2016-Apr-27 20:32N 31°34' E 121°20'0 0.1
2016-Apr-27 19:29N 31°34' E 121°20'0 0.1
2016-Apr-27 18:32N 31°34' E 121°20'0 0.1
2016-Apr-27 17:29N 31°34' E 121°20'0 0.0
2016-Apr-27 16:32N 31°34' E 121°20'0 0.0
2016-Apr-27 15:32N 31°34' E 121°20'0 0.0
2016-Apr-27 14:32N 31°34' E 121°20'0 0.0
2016-Apr-27 13:32N 31°34' E 121°20'0 0.0
2016-Apr-27 12:32N 31°34' E 121°20'0 0.1
2016-Apr-27 11:32N 31°34' E 121°20'0 0.0
2016-Apr-27 10:32N 31°34' E 121°20'0 0.2
2016-Apr-27 09:33N 31°34' E 121°20'8 7.9
2016-Apr-27 08:33N 31°29' E 121°27'7 7.4
2016-Apr-27 07:33N 31°24' E 121°34'12 9.4
2016-Apr-27 06:14N 31°16' E 121°45'811.3
2016-Apr-27 05:29N 31°10' E 121°52'  
2016-Apr-22 15:27N 34°05' E 128°40'2613.8
2016-Apr-22 13:33N 33°43' E 128°23'1913.3
2016-Apr-22 12:08N 33°28' E 128°10'  
Track history (hours):
 
Tides and Currents Weather Stations Pressure Air Temp Water Temp Dewpoint Dewpoint Depression Visibility Wind Speed Wind Dir Waves Ship Positions

Fu Ning Wan

Last reported at 2016-May-02 11:18 UTC. Time now 2016-May-04 21:13 UTC.
Position N 31°17' E 121°44'.

Length 102 m; draft 5.6 m.

Type: Tanker. MMSI: 477003600.

Date/timePositionNaut miles runAvg speedWind from/ knotsBaromVisibWave heightAir tempDewpointWater temp
2016-May-02 11:18N 31°17' E 121°44'911.6
2016-May-02 10:32N 31°23' E 121°36'10 9.7
2016-May-02 09:32N 31°29' E 121°27'1111.3
2016-May-02 08:34N 31°36' E 121°17'2813.0
2016-May-02 06:22N 31°55' E 120°52'911.2
2016-May-02 05:33N 32°00' E 120°43'1413.5
2016-May-02 04:32N 32°02' E 120°27'1514.2
2016-May-02 03:29N 31°56' E 120°11'  
2016-Apr-28 04:04N 32°03' E 120°26'5 6.8
2016-Apr-28 03:16N 32°03' E 120°33'9 8.4
2016-Apr-28 02:14N 32°00' E 120°42'26 8.6
2016-Apr-27 23:13N 31°44' E 121°06'711.3
2016-Apr-27 22:33N 31°40' E 121°13'8 8.0
2016-Apr-27 21:32N 31°34' E 121°20'0 0.1
2016-Apr-27 20:32N 31°34' E 121°20'0 0.1
2016-Apr-27 19:29N 31°34' E 121°20'0 0.1
2016-Apr-27 18:32N 31°34' E 121°20'0 0.1
2016-Apr-27 17:29N 31°34' E 121°20'0 0.0
2016-Apr-27 16:32N 31°34' E 121°20'0 0.0
2016-Apr-27 15:32N 31°34' E 121°20'0 0.0
2016-Apr-27 14:32N 31°34' E 121°20'0 0.0
2016-Apr-27 13:32N 31°34' E 121°20'0 0.0
2016-Apr-27 12:32N 31°34' E 121°20'0 0.1
2016-Apr-27 11:32N 31°34' E 121°20'0 0.0
2016-Apr-27 10:32N 31°34' E 121°20'0 0.2
2016-Apr-27 09:33N 31°34' E 121°20'8 7.9
2016-Apr-27 08:33N 31°29' E 121°27'7 7.4
2016-Apr-27 07:33N 31°24' E 121°34'12 9.4
2016-Apr-27 06:14N 31°16' E 121°45'811.3
2016-Apr-27 05:29N 31°10' E 121°52'  
2016-Apr-22 15:27N 34°05' E 128°40'2613.8
2016-Apr-22 13:33N 33°43' E 128°23'1913.3
2016-Apr-22 12:08N 33°28' E 128°10'  

Dump ship's entire track history